Time;durP1;ratioP1;P1;durP2;ratioP2;P2;SDS_P1;SDS_P2;PMS_P1;PMS_P2;Temp;Humidity;BMP_temperature;BMP_pressure;BME280_temperature;BME280_humidity;BME280_pressure;Samples;Min_cycle;Max_cycle;Signal;HPM_P1;HPM_P2
2023/06/26 00:00:46;;;;;;;8.70;6.35;;;;;;;;;;4975450;28;20767;-64
2023/06/26 00:03:14;;;;;;;9.55;6.55;;;;;;;;;;4973346;28;20038;-64
2023/06/26 00:05:41;;;;;;;10.15;6.40;;;;;;;;;;4975797;28;20096;-64
2023/06/26 00:08:07;;;;;;;8.90;6.90;;;;;;;;;;4975751;28;20034;-64
2023/06/26 00:10:33;;;;;;;8.60;6.20;;;;;;;;;;4975330;28;20811;-64
2023/06/26 00:13:00;;;;;;;9.82;6.80;;;;;;;;;;4975650;28;20061;-63
2023/06/26 00:15:31;;;;;;;10.65;6.75;;;;;;;;;;4974985;28;20117;-63
2023/06/26 00:17:57;;;;;;;8.40;6.55;;;;;;;;;;4972906;28;20034;-63
2023/06/26 00:20:24;;;;;;;8.45;6.65;;;;;;;;;;4973216;28;20035;-63
2023/06/26 00:22:51;;;;;;;9.05;6.85;;;;;;;;;;4974189;28;20964;-63
2023/06/26 00:25:17;;;;;;;9.60;6.78;;;;;;;;;;4972235;28;20038;-63
2023/06/26 00:27:43;;;;;;;7.85;6.55;;;;;;;;;;4973745;28;20132;-64
2023/06/26 00:30:09;;;;;;;8.98;6.63;;;;;;;;;;4973376;28;20038;-64
2023/06/26 00:32:35;;;;;;;8.18;6.80;;;;;;;;;;4973233;28;20205;-64
2023/06/26 00:35:01;;;;;;;8.93;6.55;;;;;;;;;;4973695;28;20122;-63
2023/06/26 00:37:27;;;;;;;9.05;6.78;;;;;;;;;;4974220;28;20056;-63
2023/06/26 00:39:53;;;;;;;11.45;6.75;;;;;;;;;;4972751;28;20081;-63
2023/06/26 00:42:19;;;;;;;8.68;6.82;;;;;;;;;;4973348;28;20037;-63
2023/06/26 00:44:45;;;;;;;8.88;6.43;;;;;;;;;;4973702;28;20050;-63
2023/06/26 00:47:14;;;;;;;9.70;6.95;;;;;;;;;;4972485;28;20042;-63
2023/06/26 00:49:40;;;;;;;9.45;6.72;;;;;;;;;;4973903;28;20039;-60
2023/06/26 00:52:06;;;;;;;9.52;7.03;;;;;;;;;;4973965;28;20045;-61
2023/06/26 00:54:33;;;;;;;11.50;6.80;;;;;;;;;;4973405;28;20176;-61
2023/06/26 00:56:59;;;;;;;12.32;7.65;;;;;;;;;;4974014;28;20031;-61
2023/06/26 00:59:25;;;;;;;10.50;7.18;;;;;;;;;;4973817;28;20030;-61
2023/06/26 01:01:51;;;;;;;8.63;6.80;;;;;;;;;;4987218;28;20096;-61
2023/06/26 01:04:17;;;;;;;9.57;7.00;;;;;;;;;;4971218;28;20038;-61
2023/06/26 01:06:48;;;;;;;10.27;7.45;;;;;;;;;;4974232;28;20444;-61
2023/06/26 01:09:15;;;;;;;10.50;7.25;;;;;;;;;;4973498;28;20022;-61
2023/06/26 01:11:41;;;;;;;8.75;6.78;;;;;;;;;;4973477;28;20026;-61
2023/06/26 01:14:07;;;;;;;8.95;7.32;;;;;;;;;;4973870;28;20053;-61
2023/06/26 01:16:33;;;;;;;10.27;6.95;;;;;;;;;;4973571;28;20056;-61
2023/06/26 01:18:59;;;;;;;11.52;7.15;;;;;;;;;;4970221;28;20032;-61
2023/06/26 01:21:32;;;;;;;8.60;6.72;;;;;;;;;;4972742;28;20050;-61
2023/06/26 01:24:05;;;;;;;8.80;7.07;;;;;;;;;;4970912;28;20112;-60
2023/06/26 01:26:35;;;;;;;16.05;8.55;;;;;;;;;;4973040;28;20156;-60
2023/06/26 01:29:02;;;;;;;10.80;7.80;;;;;;;;;;4973430;28;20173;-61
2023/06/26 01:31:30;;;;;;;11.30;7.57;;;;;;;;;;4989788;28;20500;-61
2023/06/26 01:33:56;;;;;;;10.23;7.55;;;;;;;;;;4973594;28;20058;-61
2023/06/26 01:36:22;;;;;;;13.23;7.40;;;;;;;;;;4973235;28;20031;-61
2023/06/26 01:38:48;;;;;;;9.48;7.18;;;;;;;;;;4969789;28;20038;-61
2023/06/26 01:41:15;;;;;;;10.13;7.72;;;;;;;;;;4973167;28;20104;-61
2023/06/26 01:43:41;;;;;;;9.45;6.60;;;;;;;;;;4973223;28;20030;-61
2023/06/26 01:46:27;;;;;;;9.60;7.50;;;;;;;;;;4972694;28;20037;-61
2023/06/26 01:49:02;;;;;;;10.57;7.45;;;;;;;;;;4973116;28;20128;-61
2023/06/26 01:51:31;;;;;;;9.68;6.70;;;;;;;;;;4972697;28;20027;-61
2023/06/26 01:53:59;;;;;;;8.82;6.80;;;;;;;;;;4972635;28;20060;-61
2023/06/26 01:56:25;;;;;;;9.02;7.10;;;;;;;;;;4973034;28;20060;-61
2023/06/26 01:58:54;;;;;;;10.65;7.22;;;;;;;;;;4973606;28;20035;-61
2023/06/26 02:01:21;;;;;;;9.52;7.22;;;;;;;;;;4973053;28;20225;-60
2023/06/26 02:03:47;;;;;;;9.27;7.25;;;;;;;;;;4974271;28;20053;-61
2023/06/26 02:06:13;;;;;;;9.00;7.18;;;;;;;;;;4974168;28;20045;-61
2023/06/26 02:08:39;;;;;;;10.98;7.65;;;;;;;;;;4973747;28;20573;-61
2023/06/26 02:11:05;;;;;;;9.95;7.35;;;;;;;;;;4974358;28;20046;-60
2023/06/26 02:13:31;;;;;;;9.68;6.88;;;;;;;;;;4974234;28;20046;-61
2023/06/26 02:15:57;;;;;;;8.85;7.22;;;;;;;;;;4973102;28;20034;-61
2023/06/26 02:18:24;;;;;;;10.70;7.57;;;;;;;;;;4973662;28;20047;-60
2023/06/26 02:20:50;;;;;;;9.15;7.63;;;;;;;;;;4974295;28;20042;-60
2023/06/26 02:23:16;;;;;;;9.75;7.95;;;;;;;;;;4974037;28;20038;-60
2023/06/26 02:25:42;;;;;;;10.95;7.72;;;;;;;;;;4973845;28;20562;-60
2023/06/26 02:28:08;;;;;;;9.93;7.57;;;;;;;;;;4973506;28;20215;-60
2023/06/26 02:30:34;;;;;;;13.38;8.07;;;;;;;;;;4973324;28;20129;-60
2023/06/26 02:33:00;;;;;;;10.80;7.82;;;;;;;;;;4973015;28;21060;-60
2023/06/26 02:35:26;;;;;;;10.20;7.53;;;;;;;;;;4972273;28;20470;-61
2023/06/26 02:37:52;;;;;;;10.68;7.63;;;;;;;;;;4972649;28;20493;-60
2023/06/26 02:40:18;;;;;;;9.10;7.57;;;;;;;;;;4973908;28;20044;-60
2023/06/26 02:42:44;;;;;;;11.52;7.93;;;;;;;;;;4973668;28;20046;-61
2023/06/26 02:45:10;;;;;;;10.05;7.95;;;;;;;;;;4972914;28;20050;-61
2023/06/26 02:47:39;;;;;;;10.10;8.02;;;;;;;;;;4974064;28;20045;-61
2023/06/26 02:50:06;;;;;;;11.15;8.25;;;;;;;;;;4972483;28;20118;-61
2023/06/26 02:52:32;;;;;;;13.13;8.20;;;;;;;;;;4977574;28;20065;-60
2023/06/26 02:54:58;;;;;;;10.02;7.20;;;;;;;;;;4977147;28;20034;-61
2023/06/26 02:57:24;;;;;;;9.73;8.13;;;;;;;;;;4977644;28;20036;-61
2023/06/26 02:59:50;;;;;;;10.02;7.88;;;;;;;;;;4976170;28;20109;-61
2023/06/26 03:02:16;;;;;;;12.27;8.15;;;;;;;;;;4977072;28;20046;-61
2023/06/26 03:04:42;;;;;;;11.27;8.43;;;;;;;;;;4977090;28;20038;-61
2023/06/26 03:07:09;;;;;;;10.68;9.15;;;;;;;;;;4976628;28;20088;-60
2023/06/26 03:09:35;;;;;;;11.82;8.88;;;;;;;;;;4976073;28;20041;-61
2023/06/26 03:12:01;;;;;;;9.45;7.90;;;;;;;;;;4975729;28;20036;-61
2023/06/26 03:14:27;;;;;;;9.80;7.80;;;;;;;;;;4975058;28;20062;-61
2023/06/26 03:16:57;;;;;;;10.23;7.97;;;;;;;;;;4975768;28;20069;-61
2023/06/26 03:19:23;;;;;;;15.02;8.65;;;;;;;;;;4976282;28;20026;-61
2023/06/26 03:21:49;;;;;;;12.60;8.90;;;;;;;;;;4975946;28;20034;-61
2023/06/26 03:24:15;;;;;;;12.18;8.57;;;;;;;;;;4976112;28;21477;-61
2023/06/26 03:26:41;;;;;;;10.70;8.10;;;;;;;;;;4975906;28;20037;-60
2023/06/26 03:29:08;;;;;;;12.25;9.40;;;;;;;;;;4976548;28;20041;-60
2023/06/26 03:31:34;;;;;;;13.10;9.30;;;;;;;;;;4976535;28;20030;-61
2023/06/26 03:34:00;;;;;;;11.35;8.73;;;;;;;;;;4976215;28;20034;-61
2023/06/26 03:36:26;;;;;;;11.70;8.50;;;;;;;;;;4976974;28;21843;-60
2023/06/26 03:38:56;;;;;;;12.65;8.07;;;;;;;;;;4975167;28;20040;-61
2023/06/26 03:41:22;;;;;;;10.75;8.02;;;;;;;;;;4975341;28;20045;-61
2023/06/26 03:43:48;;;;;;;11.82;8.55;;;;;;;;;;4975225;28;20044;-61
2023/06/26 03:46:14;;;;;;;12.05;7.30;;;;;;;;;;4975993;28;20038;-61
2023/06/26 03:48:40;;;;;;;11.63;8.55;;;;;;;;;;4975054;28;20049;-61
2023/06/26 03:51:07;;;;;;;12.35;8.43;;;;;;;;;;4976148;28;20026;-61
2023/06/26 03:53:33;;;;;;;15.65;8.25;;;;;;;;;;4975330;28;20038;-61
2023/06/26 03:55:59;;;;;;;9.85;7.35;;;;;;;;;;4975646;28;20022;-61
2023/06/26 03:58:26;;;;;;;10.43;8.20;;;;;;;;;;4975384;28;20038;-61
2023/06/26 04:00:53;;;;;;;11.48;8.20;;;;;;;;;;4974599;28;20077;-61
2023/06/26 04:03:19;;;;;;;11.15;8.18;;;;;;;;;;4973704;28;20033;-61
2023/06/26 04:05:45;;;;;;;10.27;7.88;;;;;;;;;;4975664;28;20034;-61
2023/06/26 04:08:11;;;;;;;10.48;7.70;;;;;;;;;;4974912;28;20061;-61
2023/06/26 04:10:37;;;;;;;10.95;7.50;;;;;;;;;;4973890;28;20049;-60
2023/06/26 04:13:03;;;;;;;11.63;7.47;;;;;;;;;;4975125;28;20185;-61
2023/06/26 04:15:29;;;;;;;9.18;7.55;;;;;;;;;;4975235;28;20164;-60
2023/06/26 04:17:55;;;;;;;9.32;6.75;;;;;;;;;;4973340;28;20088;-61
2023/06/26 04:20:21;;;;;;;9.55;7.03;;;;;;;;;;4975370;28;20038;-61
2023/06/26 04:22:47;;;;;;;10.00;6.65;;;;;;;;;;4974009;28;20046;-60
2023/06/26 04:25:13;;;;;;;8.68;6.75;;;;;;;;;;4974766;28;20038;-61
2023/06/26 04:27:39;;;;;;;10.15;6.35;;;;;;;;;;4975865;28;20050;-60
2023/06/26 04:30:06;;;;;;;10.00;5.60;;;;;;;;;;4974670;28;20030;-61
2023/06/26 04:32:32;;;;;;;11.18;6.93;;;;;;;;;;4975380;28;20038;-61
2023/06/26 04:34:58;;;;;;;11.07;7.18;;;;;;;;;;4975619;28;20034;-61
2023/06/26 04:37:24;;;;;;;12.52;6.57;;;;;;;;;;4975038;28;20065;-61
2023/06/26 04:39:51;;;;;;;11.52;6.38;;;;;;;;;;4980767;28;20026;-61
2023/06/26 04:42:17;;;;;;;9.80;5.68;;;;;;;;;;4974712;28;21834;-61
2023/06/26 04:44:43;;;;;;;8.93;5.82;;;;;;;;;;4974598;28;21145;-60
2023/06/26 04:47:09;;;;;;;10.68;6.82;;;;;;;;;;4974985;28;20072;-61
2023/06/26 04:49:35;;;;;;;12.75;6.70;;;;;;;;;;4974406;28;20508;-61
2023/06/26 04:52:01;;;;;;;11.50;6.45;;;;;;;;;;4973105;28;20581;-61
2023/06/26 04:54:28;;;;;;;10.95;6.38;;;;;;;;;;4974330;28;21362;-61
2023/06/26 04:56:54;;;;;;;10.77;6.97;;;;;;;;;;4974406;28;20021;-60
2023/06/26 04:59:20;;;;;;;10.50;6.80;;;;;;;;;;4973811;28;20833;-63
2023/06/26 05:01:47;;;;;;;11.70;6.63;;;;;;;;;;4972369;28;20041;-63
2023/06/26 05:04:14;;;;;;;23.88;8.15;;;;;;;;;;4973573;28;20103;-63
2023/06/26 05:06:40;;;;;;;36.20;9.80;;;;;;;;;;4973723;28;20038;-64
2023/06/26 05:09:06;;;;;;;21.88;9.40;;;;;;;;;;4972028;28;20045;-63
2023/06/26 05:11:32;;;;;;;16.90;9.05;;;;;;;;;;4971787;28;20995;-63
2023/06/26 05:13:58;;;;;;;16.88;8.50;;;;;;;;;;4972581;28;20041;-64
2023/06/26 05:16:24;;;;;;;19.90;9.40;;;;;;;;;;4968864;28;20049;-64
2023/06/26 05:18:50;;;;;;;16.55;9.68;;;;;;;;;;4978802;28;20096;-64
2023/06/26 05:21:16;;;;;;;17.45;9.25;;;;;;;;;;4972467;28;20125;-64
2023/06/26 05:23:45;;;;;;;13.23;8.18;;;;;;;;;;4972633;28;20113;-64
2023/06/26 05:26:13;;;;;;;15.35;7.57;;;;;;;;;;4973320;28;20184;-63
2023/06/26 05:28:39;;;;;;;14.55;7.82;;;;;;;;;;4968917;28;20105;-63
2023/06/26 05:31:05;;;;;;;13.02;6.10;;;;;;;;;;4973278;28;20512;-63
2023/06/26 05:33:31;;;;;;;13.40;5.95;;;;;;;;;;4969372;28;20026;-64
2023/06/26 05:35:59;;;;;;;13.63;6.13;;;;;;;;;;4972271;28;20038;-64
2023/06/26 05:38:25;;;;;;;13.18;5.55;;;;;;;;;;4973289;28;20042;-64
2023/06/26 05:40:51;;;;;;;17.75;6.10;;;;;;;;;;4970943;28;20400;-64
2023/06/26 05:43:20;;;;;;;13.77;5.30;;;;;;;;;;4972234;28;20034;-64
2023/06/26 05:45:47;;;;;;;12.20;5.57;;;;;;;;;;4979400;28;20041;-64
2023/06/26 05:48:13;;;;;;;12.30;5.35;;;;;;;;;;4973699;28;20493;-64
2023/06/26 05:50:41;;;;;;;14.32;5.30;;;;;;;;;;4973376;28;20093;-64
2023/06/26 05:53:08;;;;;;;14.57;4.30;;;;;;;;;;4973713;28;20158;-64
2023/06/26 05:55:34;;;;;;;16.15;5.35;;;;;;;;;;4973984;28;20049;-64
2023/06/26 05:58:00;;;;;;;14.60;5.20;;;;;;;;;;4973992;28;20038;-64
2023/06/26 06:00:27;;;;;;;17.08;4.80;;;;;;;;;;4973701;28;20030;-64
2023/06/26 06:02:54;;;;;;;17.60;5.10;;;;;;;;;;4972918;28;20046;-64
2023/06/26 06:05:21;;;;;;;15.18;4.85;;;;;;;;;;4972752;28;20105;-64
2023/06/26 06:07:47;;;;;;;13.68;4.38;;;;;;;;;;4972834;28;20161;-64
2023/06/26 06:10:13;;;;;;;17.30;4.10;;;;;;;;;;4973098;28;20066;-64
2023/06/26 06:12:39;;;;;;;9.82;3.70;;;;;;;;;;4972624;28;20025;-63
2023/06/26 06:15:06;;;;;;;13.27;4.60;;;;;;;;;;4972961;28;20039;-63
2023/06/26 06:17:32;;;;;;;12.65;3.90;;;;;;;;;;4970367;28;20129;-63
2023/06/26 06:19:58;;;;;;;12.43;3.30;;;;;;;;;;4970038;28;20030;-64
2023/06/26 06:22:24;;;;;;;14.77;4.15;;;;;;;;;;4973215;28;20041;-63
2023/06/26 06:24:51;;;;;;;14.70;4.68;;;;;;;;;;4985982;28;20034;-63
2023/06/26 06:27:17;;;;;;;13.95;3.47;;;;;;;;;;4976239;28;20039;-63
2023/06/26 06:29:43;;;;;;;13.20;3.90;;;;;;;;;;4977678;28;20026;-62
2023/06/26 06:32:09;;;;;;;13.77;3.53;;;;;;;;;;4977177;28;20026;-63
2023/06/26 06:34:35;;;;;;;12.45;4.20;;;;;;;;;;4977327;28;20061;-63
2023/06/26 06:37:03;;;;;;;12.23;3.53;;;;;;;;;;4977963;28;20046;-63
2023/06/26 06:39:29;;;;;;;12.10;3.58;;;;;;;;;;4976954;28;20075;-63
2023/06/26 06:41:55;;;;;;;17.50;3.88;;;;;;;;;;4977057;28;20041;-63
2023/06/26 06:44:21;;;;;;;12.63;3.40;;;;;;;;;;4977508;28;21814;-63
2023/06/26 06:46:48;;;;;;;11.77;3.25;;;;;;;;;;4976254;28;20483;-63
2023/06/26 06:49:14;;;;;;;13.93;3.28;;;;;;;;;;4977229;28;20117;-63
2023/06/26 06:51:40;;;;;;;14.93;3.50;;;;;;;;;;4977486;28;20030;-63
2023/06/26 07:02:43;;;;;;;14.70;2.80;;;;;;;;;;4900550;29;21391;-63
2023/06/26 07:05:09;;;;;;;10.02;2.70;;;;;;;;;;5392242;23;21258;-63
2023/06/26 07:13:11;;;;;;;9.40;2.83;;;;;;;;;;4980806;23;20127;-62
2023/06/26 07:15:37;;;;;;;7.03;2.03;;;;;;;;;;4885979;29;20036;-63
2023/06/26 07:18:03;;;;;;;9.13;2.20;;;;;;;;;;4886892;29;20040;-63
2023/06/26 07:20:29;;;;;;;10.27;2.92;;;;;;;;;;4886401;29;20036;-62
2023/06/26 07:22:55;;;;;;;9.48;2.28;;;;;;;;;;4886575;29;20039;-62
2023/06/26 07:25:21;;;;;;;8.73;2.60;;;;;;;;;;4887023;29;20036;-63
2023/06/26 07:27:47;;;;;;;7.60;2.10;;;;;;;;;;4887539;29;20048;-63
2023/06/26 07:30:13;;;;;;;6.45;1.90;;;;;;;;;;4886360;29;20414;-63
2023/06/26 07:32:40;;;;;;;7.28;2.00;;;;;;;;;;4887252;29;20032;-62
2023/06/26 07:35:06;;;;;;;8.68;2.00;;;;;;;;;;4886678;29;20043;-62
2023/06/26 07:37:33;;;;;;;7.13;2.15;;;;;;;;;;4886056;29;20020;-63
2023/06/26 07:39:59;;;;;;;7.65;1.67;;;;;;;;;;4886565;29;20695;-63
2023/06/26 07:42:25;;;;;;;6.85;1.77;;;;;;;;;;4886606;29;20044;-62
2023/06/26 07:44:51;;;;;;;8.68;1.98;;;;;;;;;;4885897;29;20126;-62
2023/06/26 07:47:17;;;;;;;6.85;1.70;;;;;;;;;;4886597;29;20060;-62
2023/06/26 07:49:43;;;;;;;6.47;1.80;;;;;;;;;;4886622;29;20075;-63
2023/06/26 07:52:14;;;;;;;6.50;1.98;;;;;;;;;;4885504;29;20052;-62
2023/06/26 07:54:40;;;;;;;8.85;1.90;;;;;;;;;;4886496;29;20044;-62
2023/06/26 07:57:08;;;;;;;7.82;2.00;;;;;;;;;;4886119;29;20590;-63
2023/06/26 07:59:34;;;;;;;7.55;1.70;;;;;;;;;;4885976;29;20068;-63
2023/06/26 08:02:01;;;;;;;6.65;1.77;;;;;;;;;;4885678;29;20032;-63
2023/06/26 08:04:30;;;;;;;12.25;2.22;;;;;;;;;;4883692;29;20024;-63
2023/06/26 08:06:57;;;;;;;9.98;1.90;;;;;;;;;;4883993;29;20127;-63
2023/06/26 08:09:24;;;;;;;6.88;1.75;;;;;;;;;;4884670;29;20044;-63
2023/06/26 08:11:50;;;;;;;5.43;1.50;;;;;;;;;;4884101;29;20049;-62
2023/06/26 08:14:17;;;;;;;6.10;1.85;;;;;;;;;;4883917;29;20084;-63
2023/06/26 08:16:46;;;;;;;9.13;2.25;;;;;;;;;;4883906;29;20083;-63
2023/06/26 08:19:13;;;;;;;8.05;1.80;;;;;;;;;;4884597;29;20581;-63
2023/06/26 08:21:40;;;;;;;4.13;1.50;;;;;;;;;;4882355;29;20566;-62
2023/06/26 08:24:06;;;;;;;5.22;1.75;;;;;;;;;;4884309;29;20074;-63
2023/06/26 08:26:32;;;;;;;3.95;1.83;;;;;;;;;;4883601;29;20032;-63
2023/06/26 08:28:58;;;;;;;6.07;2.33;;;;;;;;;;4883346;29;20521;-62
2023/06/26 08:31:24;;;;;;;7.97;1.90;;;;;;;;;;4884186;29;20036;-63
2023/06/26 08:33:50;;;;;;;8.15;2.38;;;;;;;;;;4884233;29;20024;-63
2023/06/26 08:36:16;;;;;;;7.47;2.00;;;;;;;;;;4883561;29;20092;-63
2023/06/26 08:38:42;;;;;;;6.10;1.88;;;;;;;;;;4883868;29;20037;-63
2023/06/26 08:41:09;;;;;;;8.00;2.20;;;;;;;;;;4884740;29;20519;-62
2023/06/26 08:43:35;;;;;;;9.15;1.90;;;;;;;;;;4883006;29;20040;-63
2023/06/26 08:46:01;;;;;;;9.52;2.00;;;;;;;;;;4882334;29;20048;-62
2023/06/26 08:48:29;;;;;;;5.63;1.88;;;;;;;;;;4882760;29;20021;-62
2023/06/26 08:50:56;;;;;;;5.18;1.80;;;;;;;;;;4884298;29;21330;-63
2023/06/26 08:53:22;;;;;;;10.85;2.13;;;;;;;;;;4884669;29;20079;-62
2023/06/26 08:55:49;;;;;;;6.25;1.98;;;;;;;;;;4884113;29;20073;-63
2023/06/26 08:58:16;;;;;;;4.00;1.65;;;;;;;;;;4885378;29;20091;-62
2023/06/26 09:00:42;;;;;;;6.88;2.33;;;;;;;;;;4885252;29;21679;-62
2023/06/26 09:03:09;;;;;;;7.28;2.28;;;;;;;;;;4883257;29;20032;-63
2023/06/26 09:05:35;;;;;;;7.22;2.13;;;;;;;;;;4880630;29;20055;-62
2023/06/26 09:08:02;;;;;;;5.00;1.77;;;;;;;;;;4884714;29;20048;-62
2023/06/26 09:10:28;;;;;;;5.30;1.88;;;;;;;;;;4883255;29;20044;-63
2023/06/26 09:12:58;;;;;;;6.70;1.90;;;;;;;;;;4882835;29;20063;-62
2023/06/26 09:15:24;;;;;;;7.65;2.08;;;;;;;;;;4884022;29;20127;-62
2023/06/26 09:17:51;;;;;;;7.10;1.80;;;;;;;;;;4884091;29;20944;-62
2023/06/26 09:20:17;;;;;;;4.20;1.40;;;;;;;;;;4884159;29;20932;-62
2023/06/26 09:22:48;;;;;;;5.38;1.88;;;;;;;;;;4882557;29;20055;-62
2023/06/26 09:25:14;;;;;;;5.20;1.70;;;;;;;;;;4884090;29;20040;-62
2023/06/26 09:27:40;;;;;;;5.28;2.03;;;;;;;;;;4884019;29;21643;-63
2023/06/26 09:30:07;;;;;;;5.30;1.85;;;;;;;;;;4882503;29;20028;-63
2023/06/26 09:32:35;;;;;;;5.35;1.65;;;;;;;;;;4884533;29;20028;-62
2023/06/26 09:35:02;;;;;;;5.63;1.98;;;;;;;;;;4883285;29;20347;-63
2023/06/26 09:37:29;;;;;;;5.40;2.22;;;;;;;;;;4883736;29;20040;-62
2023/06/26 09:39:55;;;;;;;7.80;2.58;;;;;;;;;;4883621;29;20063;-62
2023/06/26 09:42:21;;;;;;;5.97;2.08;;;;;;;;;;4884404;29;20025;-62
2023/06/26 09:44:48;;;;;;;6.10;2.20;;;;;;;;;;4884349;29;20044;-62
2023/06/26 09:47:17;;;;;;;5.78;2.03;;;;;;;;;;4884233;29;20087;-63
2023/06/26 09:49:44;;;;;;;6.15;2.40;;;;;;;;;;4883957;29;20039;-62
2023/06/26 09:52:10;;;;;;;8.77;2.72;;;;;;;;;;4882971;29;20044;-62
2023/06/26 09:54:36;;;;;;;6.88;2.00;;;;;;;;;;4884632;29;20677;-63
2023/06/26 09:57:09;;;;;;;6.20;2.10;;;;;;;;;;4884527;29;20519;-62
2023/06/26 09:59:35;;;;;;;4.15;1.80;;;;;;;;;;4880166;29;20112;-63
2023/06/26 10:02:01;;;;;;;7.22;2.30;;;;;;;;;;4882743;29;20055;-62
2023/06/26 10:04:28;;;;;;;5.38;2.13;;;;;;;;;;4882949;29;20495;-63
2023/06/26 10:06:56;;;;;;;4.95;1.70;;;;;;;;;;4866528;29;20035;-63
2023/06/26 10:09:23;;;;;;;5.97;2.17;;;;;;;;;;4882639;29;20047;-63
2023/06/26 10:11:56;;;;;;;5.40;1.98;;;;;;;;;;4882002;29;20055;-63
2023/06/26 10:14:22;;;;;;;7.53;2.42;;;;;;;;;;4882466;29;20090;-62
2023/06/26 10:16:50;;;;;;;4.90;1.88;;;;;;;;;;4882244;29;20039;-63
2023/06/26 10:19:25;;;;;;;7.72;2.33;;;;;;;;;;4881984;29;20063;-63
2023/06/26 10:21:54;;;;;;;6.13;2.08;;;;;;;;;;4881635;29;20043;-63
2023/06/26 10:24:21;;;;;;;7.18;2.10;;;;;;;;;;4881512;29;20589;-62
2023/06/26 10:26:49;;;;;;;6.63;2.50;;;;;;;;;;4880374;29;20040;-62
2023/06/26 10:29:16;;;;;;;8.90;1.85;;;;;;;;;;4881736;29;20146;-62
2023/06/26 10:31:45;;;;;;;7.60;2.58;;;;;;;;;;4882444;29;20040;-62
2023/06/26 10:34:11;;;;;;;4.60;2.30;;;;;;;;;;4874258;29;20032;-62
2023/06/26 10:36:37;;;;;;;5.32;2.53;;;;;;;;;;4873524;29;20586;-62
2023/06/26 10:39:07;;;;;;;9.05;2.83;;;;;;;;;;4876298;29;20486;-63
2023/06/26 10:41:43;;;;;;;6.93;2.25;;;;;;;;;;4874412;29;20033;-63
2023/06/26 10:44:09;;;;;;;6.45;2.30;;;;;;;;;;4874580;29;20032;-63
2023/06/26 10:46:54;;;;;;;6.72;2.08;;;;;;;;;;4874287;29;20507;-63
2023/06/26 10:49:21;;;;;;;6.07;1.95;;;;;;;;;;4853783;29;20472;-62
2023/06/26 10:51:51;;;;;;;5.57;1.77;;;;;;;;;;4874786;29;20028;-63
2023/06/26 10:54:18;;;;;;;6.50;1.80;;;;;;;;;;4875541;29;21034;-63
2023/06/26 10:56:48;;;;;;;6.93;1.80;;;;;;;;;;4876619;29;20078;-62
2023/06/26 10:59:22;;;;;;;6.55;1.90;;;;;;;;;;4875307;29;20082;-62
2023/06/26 11:02:14;;;;;;;6.55;2.25;;;;;;;;;;4874004;29;20159;-63
2023/06/26 11:04:44;;;;;;;5.78;2.05;;;;;;;;;;4872661;29;20047;-63
2023/06/26 11:07:17;;;;;;;6.18;2.00;;;;;;;;;;4875287;29;21216;-63
2023/06/26 11:09:57;;;;;;;10.77;2.17;;;;;;;;;;4875621;29;20155;-62
2023/06/26 11:12:41;;;;;;;5.68;1.77;;;;;;;;;;4874992;29;20123;-62
2023/06/26 11:15:17;;;;;;;6.38;1.95;;;;;;;;;;4875963;29;20055;-62
2023/06/26 11:17:44;;;;;;;9.07;1.83;;;;;;;;;;4876831;29;20032;-63
2023/06/26 11:20:11;;;;;;;6.70;1.80;;;;;;;;;;4876788;29;20064;-62
2023/06/26 11:22:38;;;;;;;7.00;2.10;;;;;;;;;;4875220;29;20044;-63
2023/06/26 11:25:05;;;;;;;5.60;1.50;;;;;;;;;;4876545;29;20067;-63
2023/06/26 11:27:32;;;;;;;2.97;1.30;;;;;;;;;;4876178;29;20066;-63
2023/06/26 11:29:58;;;;;;;5.20;1.55;;;;;;;;;;4875706;29;20103;-63
2023/06/26 11:32:27;;;;;;;4.78;1.15;;;;;;;;;;4876539;29;20127;-62
2023/06/26 11:34:53;;;;;;;5.00;1.45;;;;;;;;;;4874631;29;21214;-62
2023/06/26 11:37:20;;;;;;;4.40;1.05;;;;;;;;;;4872927;29;20558;-63
2023/06/26 11:39:46;;;;;;;5.15;1.70;;;;;;;;;;4874142;29;20042;-63
2023/06/26 11:42:12;;;;;;;5.13;1.25;;;;;;;;;;4874332;29;20679;-63
2023/06/26 11:44:42;;;;;;;5.18;1.38;;;;;;;;;;4874063;29;20049;-63
2023/06/26 11:47:08;;;;;;;9.07;1.70;;;;;;;;;;4874003;29;20032;-63
2023/06/26 11:49:35;;;;;;;5.63;1.30;;;;;;;;;;4873668;29;20056;-63
2023/06/26 11:52:03;;;;;;;6.30;1.48;;;;;;;;;;4872934;29;20052;-63
2023/06/26 11:54:29;;;;;;;7.60;2.10;;;;;;;;;;4874056;29;20060;-62
2023/06/26 11:56:56;;;;;;;5.10;1.30;;;;;;;;;;4873867;29;20794;-62
2023/06/26 11:59:22;;;;;;;6.20;1.45;;;;;;;;;;4873633;29;20043;-63
2023/06/26 12:01:50;;;;;;;7.05;1.75;;;;;;;;;;4873637;29;20055;-62
2023/06/26 12:04:17;;;;;;;5.25;1.35;;;;;;;;;;4873402;29;20076;-63
2023/06/26 12:06:45;;;;;;;7.97;2.13;;;;;;;;;;4874341;29;20047;-63
2023/06/26 12:09:12;;;;;;;11.02;2.08;;;;;;;;;;4874918;29;20032;-62
2023/06/26 12:11:38;;;;;;;5.30;1.27;;;;;;;;;;4873937;29;20112;-63
2023/06/26 12:14:06;;;;;;;6.72;1.50;;;;;;;;;;4872424;29;20076;-62
2023/06/26 12:16:33;;;;;;;6.15;1.40;;;;;;;;;;4870179;29;20063;-62
2023/06/26 12:19:03;;;;;;;10.23;1.60;;;;;;;;;;4872534;29;20064;-63
2023/06/26 12:21:29;;;;;;;4.28;1.45;;;;;;;;;;4871330;29;20148;-63
2023/06/26 12:23:59;;;;;;;8.23;1.60;;;;;;;;;;4871737;29;20032;-63
2023/06/26 12:26:26;;;;;;;6.40;1.73;;;;;;;;;;4870937;29;20127;-63
2023/06/26 12:28:53;;;;;;;7.13;1.42;;;;;;;;;;4871654;29;20143;-63
2023/06/26 12:31:21;;;;;;;7.93;1.85;;;;;;;;;;4873077;29;20036;-63
2023/06/26 12:33:48;;;;;;;6.55;1.85;;;;;;;;;;4851655;29;20036;-63
2023/06/26 12:36:14;;;;;;;8.38;2.03;;;;;;;;;;4867888;29;20437;-63
2023/06/26 12:38:41;;;;;;;7.30;1.42;;;;;;;;;;4871000;29;20493;-63
2023/06/26 12:41:16;;;;;;;8.65;2.00;;;;;;;;;;4870139;29;20032;-63
2023/06/26 12:43:43;;;;;;;6.90;1.63;;;;;;;;;;4871669;29;20040;-63
2023/06/26 12:46:09;;;;;;;7.43;2.05;;;;;;;;;;4871158;29;20499;-63
2023/06/26 12:48:47;;;;;;;8.80;1.40;;;;;;;;;;4870424;29;20276;-63
2023/06/26 12:51:13;;;;;;;3.90;1.35;;;;;;;;;;4868300;29;20055;-63
2023/06/26 12:53:40;;;;;;;6.72;1.77;;;;;;;;;;4867689;29;20477;-63
2023/06/26 12:56:07;;;;;;;7.82;1.60;;;;;;;;;;4869906;29;20042;-63
2023/06/26 12:58:33;;;;;;;4.50;1.38;;;;;;;;;;4870782;29;20036;-63
2023/06/26 13:00:59;;;;;;;9.35;2.22;;;;;;;;;;4872706;29;20086;-63
2023/06/26 13:03:25;;;;;;;7.65;2.25;;;;;;;;;;4871961;29;20040;-63
2023/06/26 13:05:51;;;;;;;7.32;1.88;;;;;;;;;;4867941;29;20576;-63
2023/06/26 13:08:18;;;;;;;5.15;1.38;;;;;;;;;;4871144;29;20190;-63
2023/06/26 13:10:45;;;;;;;5.45;1.50;;;;;;;;;;4870968;29;20036;-63
2023/06/26 13:13:11;;;;;;;4.63;1.40;;;;;;;;;;4871201;29;20052;-63
2023/06/26 13:15:38;;;;;;;6.53;1.50;;;;;;;;;;4872247;29;20032;-63
2023/06/26 13:18:04;;;;;;;6.80;1.58;;;;;;;;;;4872359;29;20032;-63
2023/06/26 13:20:30;;;;;;;6.88;1.77;;;;;;;;;;4871994;29;20075;-63
2023/06/26 13:22:56;;;;;;;8.20;1.40;;;;;;;;;;4869711;29;20060;-63
2023/06/26 13:25:22;;;;;;;5.75;1.33;;;;;;;;;;4869430;29;20240;-63
2023/06/26 13:27:49;;;;;;;4.97;1.30;;;;;;;;;;4870250;29;20040;-63
2023/06/26 13:30:15;;;;;;;8.27;1.50;;;;;;;;;;4870676;29;21307;-63
2023/06/26 13:32:42;;;;;;;5.07;1.33;;;;;;;;;;4871261;29;20036;-63
2023/06/26 13:35:09;;;;;;;7.47;1.52;;;;;;;;;;4869416;29;20040;-60
2023/06/26 13:37:36;;;;;;;6.05;1.38;;;;;;;;;;4871595;29;20044;-63
2023/06/26 13:40:03;;;;;;;5.78;1.30;;;;;;;;;;4870701;29;20024;-63
2023/06/26 13:42:29;;;;;;;7.10;1.42;;;;;;;;;;4869942;29;21417;-63
2023/06/26 13:44:56;;;;;;;6.00;1.30;;;;;;;;;;4868986;29;20028;-63
2023/06/26 13:47:25;;;;;;;10.80;1.70;;;;;;;;;;4870106;29;20411;-63
2023/06/26 13:49:51;;;;;;;3.92;1.20;;;;;;;;;;4835502;29;21120;-63
2023/06/26 13:52:17;;;;;;;4.85;1.38;;;;;;;;;;4871937;29;21008;-63
2023/06/26 13:54:43;;;;;;;4.75;1.40;;;;;;;;;;4869686;29;20742;-63
2023/06/26 13:57:10;;;;;;;6.88;1.75;;;;;;;;;;4869794;29;20039;-63
2023/06/26 13:59:37;;;;;;;5.90;1.40;;;;;;;;;;4872199;29;20036;-63
2023/06/26 14:02:05;;;;;;;5.95;1.58;;;;;;;;;;4872820;29;20084;-63
2023/06/26 14:04:31;;;;;;;14.20;2.15;;;;;;;;;;4870869;29;20068;-63
2023/06/26 14:06:57;;;;;;;4.63;1.52;;;;;;;;;;4871881;29;20119;-63
2023/06/26 14:09:23;;;;;;;5.43;1.38;;;;;;;;;;4872596;29;20036;-63
2023/06/26 14:11:49;;;;;;;4.07;1.27;;;;;;;;;;4871729;29;20148;-63
2023/06/26 14:14:15;;;;;;;4.88;1.33;;;;;;;;;;4872105;29;20467;-63
2023/06/26 14:16:41;;;;;;;4.30;1.10;;;;;;;;;;4872601;29;20385;-63
2023/06/26 14:19:08;;;;;;;7.63;1.70;;;;;;;;;;4871469;29;20040;-63
2023/06/26 14:21:34;;;;;;;4.47;1.10;;;;;;;;;;4872370;29;20043;-63
2023/06/26 14:24:03;;;;;;;4.40;1.20;;;;;;;;;;4871228;29;20040;-63
2023/06/26 14:26:29;;;;;;;6.65;1.20;;;;;;;;;;4872470;29;20131;-63
2023/06/26 14:28:55;;;;;;;13.23;1.60;;;;;;;;;;4872395;29;20577;-63
2023/06/26 14:31:22;;;;;;;6.68;1.05;;;;;;;;;;4872380;29;20039;-60
2023/06/26 14:33:48;;;;;;;4.50;1.30;;;;;;;;;;4871474;29;20039;-60
2023/06/26 14:36:14;;;;;;;5.00;1.23;;;;;;;;;;4871978;29;21168;-60
2023/06/26 14:38:40;;;;;;;4.78;1.25;;;;;;;;;;4872671;29;20758;-61
2023/06/26 14:41:06;;;;;;;11.45;1.73;;;;;;;;;;4873603;29;20114;-61
2023/06/26 14:43:32;;;;;;;6.38;1.55;;;;;;;;;;4872826;29;20040;-61
2023/06/26 14:45:58;;;;;;;4.53;1.38;;;;;;;;;;4873539;29;20047;-61
2023/06/26 14:48:24;;;;;;;6.97;1.27;;;;;;;;;;4875598;29;20037;-61
2023/06/26 14:50:50;;;;;;;8.10;1.38;;;;;;;;;;4872719;29;20040;-61